This is the latest recevied weather packets stored in our database for station/object KG4AGD. If no packets are shown the sender has not sent any weather packets the latest 1 day(s).
| Time | Temp. | Humidity | Pressure | Rain* | Wind** | Luminosity | Snow |
|---|---|---|---|---|---|---|---|
| 1777988158 | 20.56° C | 71% | 1018.9 hPa | 0 mm | 3.13 m/s, 222° | - | - |
| 1777987856 | 20.56° C | 72% | 1018.9 hPa | 0 mm | 3.13 m/s, 227° | - | - |
| 1777987554 | 20.56° C | 72% | 1018.9 hPa | 0 mm | 3.58 m/s, 279° | - | - |
| 1777987251 | 19.44° C | 73% | 1018.9 hPa | 0 mm | 0.89 m/s, 209° | - | - |
| 1777986949 | 20° C | 73% | 1018.9 hPa | 0 mm | 2.24 m/s, 184° | - | - |
| 1777986647 | 19.44° C | 74% | 1018.9 hPa | 0 mm | 2.24 m/s, 192° | - | - |
| 1777986344 | 19.44° C | 75% | 1019.3 hPa | 0 mm | 3.13 m/s, 179° | - | - |
| 1777986042 | 19.44° C | 74% | 1018.9 hPa | 0 mm | 3.58 m/s, 242° | - | - |
| 1777985740 | 19.44° C | 76% | 1019.3 hPa | 0 mm | 2.68 m/s, 287° | - | - |
| 1777985438 | 19.44° C | 74% | 1018.9 hPa | 0 mm | 2.68 m/s, 230° | - | - |
| 1777985135 | 18.89° C | 76% | 1018.9 hPa | 0 mm | 1.79 m/s, 205° | - | - |
| 1777984833 | 18.89° C | 75% | 1018.9 hPa | 0 mm | 1.79 m/s, 137° | - | - |
| 1777984531 | 18.33° C | 75% | 1018.9 hPa | 0 mm | 3.13 m/s, 218° | - | - |
| 1777984228 | 18.33° C | 76% | 1018.9 hPa | 0 mm | 3.58 m/s, 233° | - | - |
| 1777983926 | 18.33° C | 76% | 1018.9 hPa | 0 mm | 1.34 m/s, 252° | - | - |
| 1777983624 | 17.78° C | 77% | 1018.9 hPa | 0 mm | 2.24 m/s, 242° | - | - |
| 1777983322 | 17.22° C | 78% | 1018.9 hPa | 0 mm | 0.89 m/s, 187° | - | - |
| 1777983020 | 16.67° C | 79% | 1018.9 hPa | 0 mm | 1.79 m/s, 169° | - | - |
| 1777982717 | 16.67° C | 79% | 1018.9 hPa | 0 mm | 1.79 m/s, 144° | - | - |
| 1777982415 | 16.11° C | 82% | 1018.9 hPa | 0 mm | 0.89 m/s, 178° | - | - |
| 1777982113 | 16.11° C | 81% | 1018.9 hPa | 0 mm | 2.68 m/s, 189° | - | - |
| 1777981811 | 15.56° C | 83% | 1018.9 hPa | 0 mm | 0.89 m/s, 213° | - | - |
| 1777981508 | 15.56° C | 82% | 1018.9 hPa | 0 mm | 2.68 m/s, 177° | - | - |
| 1777981205 | 15° C | 83% | 1018.9 hPa | 0 mm | 1.34 m/s, 188° | - | - |
| 1777980902 | 15° C | 84% | 1018.6 hPa | 0 mm | 1.34 m/s, 179° | - | - |
* Rain since midnight (hover to see other rain measurements)
** Current wind speed in m/s (hover to see current wind gust speed)